createdAt,value
2018-02-24T00:01:06.599Z,96.03
2018-02-24T00:03:34.361Z,88.60
2018-02-24T00:06:02.858Z,77.40
2018-02-24T00:08:31.197Z,89.70
2018-02-24T00:11:00.257Z,85.00
2018-02-24T00:13:28.248Z,83.33
2018-02-24T00:15:55.792Z,73.23
2018-02-24T00:18:23.337Z,81.90
2018-02-24T00:20:50.920Z,96.40
2018-02-24T00:23:18.469Z,79.57
2018-02-24T00:25:46.041Z,86.33
2018-02-24T00:28:13.588Z,86.30
2018-02-24T00:30:41.168Z,78.07
2018-02-24T00:33:08.708Z,73.20
2018-02-24T00:35:36.580Z,83.50
2018-02-24T00:38:04.129Z,86.60
2018-02-24T00:40:31.682Z,75.70
2018-02-24T00:42:59.273Z,70.03
2018-02-24T00:45:26.833Z,92.07
2018-02-24T00:47:54.423Z,83.33
2018-02-24T00:50:21.968Z,82.53
2018-02-24T00:52:49.548Z,93.50
2018-02-24T00:55:17.101Z,82.47
2018-02-24T00:57:45.457Z,87.77
2018-02-24T01:00:13.001Z,89.80
2018-02-24T01:02:40.588Z,79.07
2018-02-24T01:05:08.369Z,84.90
2018-02-24T01:07:36.674Z,97.37
2018-02-24T01:10:04.507Z,78.73
2018-02-24T01:12:32.828Z,92.80
2018-02-24T01:15:00.550Z,109.93
2018-02-24T01:17:28.128Z,75.07
2018-02-24T01:19:55.765Z,81.80
2018-02-24T01:22:24.328Z,80.43
2018-02-24T01:24:51.881Z,85.23
2018-02-24T01:27:19.460Z,81.00
2018-02-24T01:29:47.015Z,84.27
2018-02-24T01:32:15.879Z,94.07
2018-02-24T01:34:43.428Z,84.07
2018-02-24T01:37:10.946Z,97.47
2018-02-24T01:39:38.529Z,89.40
2018-02-24T01:42:06.087Z,80.67
2018-02-24T01:44:33.677Z,83.63
2018-02-24T01:47:01.233Z,97.77
2018-02-24T01:49:28.853Z,99.07
2018-02-24T01:51:56.438Z,104.23
2018-02-24T01:54:24.032Z,94.53
2018-02-24T01:56:52.341Z,77.23
2018-02-24T01:59:21.168Z,98.40
2018-02-24T02:01:48.725Z,92.53
2018-02-24T02:04:16.314Z,83.03
2018-02-24T02:06:44.166Z,73.20
2018-02-24T02:09:11.708Z,77.20
2018-02-24T02:11:39.306Z,100.27
2018-02-24T02:14:06.848Z,79.00
2018-02-24T02:16:34.814Z,80.93
2018-02-24T02:19:02.363Z,75.43
2018-02-24T02:21:29.945Z,79.80
2018-02-24T02:23:57.526Z,46.43
2018-02-24T02:26:25.088Z,80.87
2018-02-24T02:28:53.449Z,79.80
2018-02-24T02:31:21.023Z,79.17
2018-02-24T02:33:49.519Z,95.73
2018-02-24T02:36:17.058Z,75.27
2018-02-24T02:38:44.997Z,78.57
2018-02-24T02:41:12.549Z,86.37
2018-02-24T02:43:40.093Z,76.10
2018-02-24T02:46:07.687Z,83.67
2018-02-24T02:48:35.242Z,91.63
2018-02-24T02:51:02.834Z,89.10
2018-02-24T02:53:30.395Z,91.73
2018-02-24T02:55:58.747Z,99.73
2018-02-24T02:58:27.810Z,89.30
2018-02-24T03:00:55.794Z,75.30
2018-02-24T03:03:23.343Z,93.20
2018-02-24T03:05:50.986Z,112.60
2018-02-24T03:08:18.580Z,93.47
2018-02-24T03:10:46.129Z,88.93
2018-02-24T03:13:14.098Z,109.13
2018-02-24T03:15:41.644Z,95.93
2018-02-24T03:18:09.185Z,96.60
2018-02-24T03:20:36.768Z,80.00
2018-02-24T03:23:04.313Z,92.77
2018-02-24T03:25:31.901Z,95.20
2018-02-24T03:27:59.461Z,74.43
2018-02-24T03:30:27.050Z,88.80
2018-02-24T03:32:54.597Z,83.57
2018-02-24T03:35:22.944Z,105.77
2018-02-24T03:37:50.494Z,90.60
2018-02-24T03:40:18.372Z,95.67
2018-02-24T03:42:45.921Z,94.30
2018-02-24T03:45:13.477Z,91.50
2018-02-24T03:47:41.070Z,104.00
2018-02-24T03:50:08.625Z,90.07
2018-02-24T03:52:36.220Z,96.37
2018-02-24T03:55:03.765Z,95.63
2018-02-24T03:57:32.421Z,62.17
2018-02-24T03:59:59.967Z,86.37
2018-02-24T04:02:27.555Z,93.37
2018-02-24T04:04:55.901Z,109.17
2018-02-24T04:07:23.449Z,85.93
2018-02-24T04:09:51.125Z,88.03
2018-02-24T04:12:18.699Z,96.63
2018-02-24T04:14:46.276Z,99.60
2018-02-24T04:17:14.577Z,103.53
2018-02-24T04:19:42.920Z,108.33
2018-02-24T04:22:10.466Z,96.97
2018-02-24T04:24:38.020Z,102.37
2018-02-24T04:27:05.615Z,86.87
2018-02-24T04:29:33.942Z,104.77
2018-02-24T04:32:01.517Z,99.23
2018-02-24T04:34:29.098Z,104.20
2018-02-24T04:36:58.200Z,101.80
2018-02-24T04:39:26.325Z,91.67
2018-02-24T04:41:54.357Z,102.53
2018-02-24T04:44:21.898Z,100.43
2018-02-24T04:46:49.436Z,105.73
2018-02-24T04:49:17.026Z,110.20
2018-02-24T04:51:44.576Z,90.97
2018-02-24T04:54:12.157Z,109.20
2018-02-24T04:56:41.364Z,104.20
2018-02-24T04:59:09.326Z,106.77
2018-02-24T05:01:36.861Z,97.20
2018-02-24T05:04:04.413Z,113.63
2018-02-24T05:06:32.138Z,99.57
2018-02-24T05:08:59.677Z,97.13
2018-02-24T05:11:27.600Z,98.00
2018-02-24T05:13:55.969Z,95.57
2018-02-24T05:16:23.524Z,104.47
2018-02-24T05:18:51.110Z,106.83
2018-02-24T05:21:18.665Z,104.03
2018-02-24T05:23:48.161Z,110.40
2018-02-24T05:26:16.685Z,110.87
2018-02-24T05:28:45.012Z,88.77
2018-02-24T05:31:12.710Z,96.43
2018-02-24T05:33:40.257Z,91.33
2018-02-24T05:36:08.605Z,90.23
2018-02-24T05:38:36.196Z,91.47
2018-02-24T05:41:04.541Z,118.63
2018-02-24T05:43:32.094Z,100.87
2018-02-24T05:45:59.982Z,100.67
2018-02-24T05:48:27.534Z,84.63
2018-02-24T05:50:55.101Z,89.53
2018-02-24T05:53:22.685Z,98.03
2018-02-24T05:55:51.011Z,103.90
2018-02-24T05:58:18.592Z,98.80
2018-02-24T06:00:46.153Z,101.37
2018-02-24T06:03:14.017Z,87.83
2018-02-24T06:05:41.560Z,93.40
2018-02-24T06:08:09.112Z,90.23
2018-02-24T06:10:36.818Z,96.53
2018-02-24T06:13:05.146Z,98.93
2018-02-24T06:15:32.733Z,94.07
2018-02-24T06:18:00.300Z,118.23
2018-02-24T06:20:29.389Z,103.63
2018-02-24T06:22:56.931Z,109.57
2018-02-24T06:25:24.519Z,104.27
2018-02-24T06:27:52.107Z,107.27
2018-02-24T06:30:20.756Z,103.97
2018-02-24T06:32:48.301Z,95.43
2018-02-24T06:35:16.127Z,101.77
2018-02-24T06:37:43.714Z,91.97
2018-02-24T06:40:11.277Z,96.80
2018-02-24T06:42:38.861Z,133.57
2018-02-24T06:45:06.610Z,98.00
2018-02-24T06:47:34.202Z,110.97
2018-02-24T06:50:02.673Z,108.87
2018-02-24T06:52:31.033Z,104.83
2018-02-24T06:54:58.585Z,111.33
2018-02-24T06:57:26.180Z,85.20
2018-02-24T06:59:53.902Z,118.30
2018-02-24T07:02:21.805Z,116.37
2018-02-24T07:04:50.118Z,114.47
2018-02-24T07:07:17.687Z,104.50
2018-02-24T07:09:45.279Z,120.37
2018-02-24T07:12:12.833Z,93.07
2018-02-24T07:14:40.465Z,117.83
2018-02-24T07:17:08.012Z,101.30
2018-02-24T07:19:36.364Z,107.17
2018-02-24T07:22:03.915Z,101.70
2018-02-24T07:24:32.252Z,111.47
2018-02-24T07:26:59.805Z,103.93
2018-02-24T07:29:27.691Z,112.37
2018-02-24T07:31:55.254Z,122.67
2018-02-24T07:34:22.811Z,98.23
2018-02-24T07:36:50.590Z,87.10
2018-02-24T07:39:18.153Z,96.10
2018-02-24T07:41:45.742Z,96.90
2018-02-24T07:44:13.320Z,116.50
2018-02-24T07:46:41.485Z,119.43
2018-02-24T07:49:09.185Z,109.13
2018-02-24T07:51:36.746Z,101.47
2018-02-24T07:54:04.326Z,121.10
2018-02-24T07:56:32.008Z,120.43
2018-02-24T07:58:59.584Z,110.20
2018-02-24T08:01:27.141Z,119.83
2018-02-24T08:03:55.499Z,106.93
2018-02-24T08:06:23.064Z,118.97
2018-02-24T08:08:50.694Z,106.27
2018-02-24T08:11:18.296Z,102.20
2018-02-24T08:13:45.881Z,91.40
2018-02-24T08:16:13.426Z,95.10
2018-02-24T08:18:41.399Z,125.53
2018-02-24T08:21:09.255Z,104.97
2018-02-24T08:23:36.837Z,99.40
2018-02-24T08:26:04.422Z,96.67
2018-02-24T08:28:31.975Z,106.30
2018-02-24T08:30:59.554Z,84.23
2018-02-24T08:33:27.236Z,90.80
2018-02-24T08:35:54.836Z,91.37
2018-02-24T08:38:22.398Z,64.03
2018-02-24T08:40:50.296Z,65.73
2018-02-24T08:43:17.929Z,49.13
2018-02-24T08:45:46.471Z,52.47
2018-02-24T08:48:14.050Z,65.77
2018-02-24T08:50:41.589Z,40.70
2018-02-24T08:53:09.368Z,50.30
2018-02-24T08:55:36.921Z,16.23
2018-02-24T08:58:05.367Z,33.70
2018-02-24T09:00:32.906Z,49.37
2018-02-24T09:03:00.885Z,51.73
2018-02-24T09:05:28.443Z,48.60
2018-02-24T09:07:56.001Z,56.00
2018-02-24T09:10:23.605Z,43.43
2018-02-24T09:12:51.170Z,32.00
2018-02-24T09:15:19.529Z,47.93
2018-02-24T09:17:47.358Z,51.80
2018-02-24T09:20:14.934Z,52.03
2018-02-24T09:22:42.493Z,39.00
2018-02-24T09:25:10.037Z,70.53
2018-02-24T09:27:37.617Z,39.03
2018-02-24T09:30:05.175Z,52.53
2018-02-24T09:32:32.874Z,38.07
2018-02-24T09:35:01.192Z,40.47
2018-02-24T09:37:29.186Z,35.43
2018-02-24T09:39:57.518Z,30.93
2018-02-24T09:42:25.066Z,30.90
2018-02-24T09:44:52.657Z,21.00
2018-02-24T09:47:20.206Z,11.83
2018-02-24T09:49:48.032Z,9.17
2018-02-24T09:52:15.574Z,13.57
2018-02-24T09:54:43.321Z,19.53
2018-02-24T09:57:10.878Z,27.97
2018-02-24T09:59:38.714Z,10.13
2018-02-24T10:02:06.261Z,9.50
2018-02-24T10:04:33.796Z,11.30
2018-02-24T10:07:01.581Z,4.30
2018-02-24T10:09:29.134Z,3.23
2018-02-24T10:11:56.714Z,10.60
2018-02-24T10:14:24.273Z,5.93
2018-02-24T10:16:51.957Z,3.97
2018-02-24T10:19:19.501Z,8.77
2018-02-24T10:21:47.491Z,10.57
2018-02-24T10:24:15.034Z,9.20
2018-02-24T10:26:42.593Z,7.10
2018-02-24T10:29:10.269Z,8.33
2018-02-24T10:31:37.803Z,4.43
2018-02-24T10:34:05.374Z,14.00
2018-02-24T10:36:32.995Z,5.77
2018-02-24T10:39:00.593Z,7.20
2018-02-24T10:41:28.224Z,8.13
2018-02-24T10:43:55.816Z,4.07
2018-02-24T10:46:23.409Z,6.80
2018-02-24T10:49:03.049Z,8.10
2018-02-24T10:51:30.681Z,3.37
2018-02-24T10:53:58.241Z,3.97
2018-02-24T10:56:26.002Z,1.33
2018-02-24T10:58:53.540Z,3.70
2018-02-24T11:01:21.113Z,6.53
2018-02-24T11:03:48.642Z,1.70
2018-02-24T11:06:17.012Z,1.23
2018-02-24T11:08:44.561Z,1.77
2018-02-24T11:11:12.131Z,5.90
2018-02-24T11:13:39.698Z,8.90
2018-02-24T11:16:08.346Z,3.83
2018-02-24T11:18:35.894Z,2.27
2018-02-24T11:21:03.466Z,0.80
2018-02-24T11:23:31.047Z,4.73
2018-02-24T11:25:58.619Z,5.20
2018-02-24T11:28:27.105Z,3.27
2018-02-24T11:30:55.418Z,4.97
2018-02-24T11:33:22.984Z,1.90
2018-02-24T11:35:50.701Z,4.43
2018-02-24T11:38:19.333Z,2.53
2018-02-24T11:40:46.883Z,2.33
2018-02-24T11:43:14.413Z,1.90
2018-02-24T11:45:42.118Z,1.27
2018-02-24T11:48:09.659Z,1.80
2018-02-24T11:50:37.239Z,1.13
2018-02-24T11:53:04.782Z,2.13
2018-02-24T11:55:32.743Z,3.23
2018-02-24T11:58:00.349Z,3.83
2018-02-24T12:00:27.909Z,1.63
2018-02-24T12:02:55.590Z,4.73
2018-02-24T12:05:23.907Z,3.73
2018-02-24T12:07:51.494Z,1.27
2018-02-24T12:10:19.026Z,1.77
2018-02-24T12:12:46.647Z,2.63
2018-02-24T12:15:14.953Z,2.53
2018-02-24T12:17:42.528Z,3.63
2018-02-24T12:20:10.077Z,5.60
2018-02-24T12:22:37.701Z,1.97
2018-02-24T12:25:06.068Z,4.20
2018-02-24T12:27:33.609Z,4.20
2018-02-24T12:30:01.671Z,1.47
2018-02-24T12:32:29.197Z,6.40
2018-02-24T12:34:56.736Z,4.23
2018-02-24T12:37:24.312Z,2.83
2018-02-24T12:39:51.872Z,1.03
2018-02-24T12:42:19.488Z,2.67
2018-02-24T12:44:47.027Z,4.63
2018-02-24T12:47:14.613Z,1.50
2018-02-24T12:49:42.317Z,4.70
2018-02-24T12:52:10.089Z,1.43
2018-02-24T12:54:37.626Z,2.20
2018-02-24T12:57:05.498Z,0.90
2018-02-24T12:59:33.024Z,0.60
2018-02-24T13:02:00.578Z,3.83
2018-02-24T13:04:28.179Z,3.73
2018-02-24T13:06:55.716Z,3.00
2018-02-24T13:09:23.650Z,1.03
2018-02-24T13:11:51.953Z,1.53
2018-02-24T13:14:19.545Z,1.10
2018-02-24T13:16:47.125Z,1.30
2018-02-24T13:19:14.664Z,1.70
2018-02-24T13:21:42.336Z,5.50
2018-02-24T13:24:09.886Z,2.37
2018-02-24T13:26:37.458Z,13.20
2018-02-24T13:29:05.087Z,1.40
2018-02-24T13:31:33.222Z,3.83
2018-02-24T13:34:00.782Z,2.50
2018-02-24T13:36:28.399Z,3.17
2018-02-24T13:38:55.998Z,2.00
2018-02-24T13:41:23.576Z,1.37
2018-02-24T13:43:51.121Z,2.40
2018-02-24T13:46:18.658Z,3.33
2018-02-24T13:48:46.636Z,1.70
2018-02-24T13:51:14.174Z,3.90
2018-02-24T13:53:41.722Z,1.30
2018-02-24T13:56:09.306Z,3.93
2018-02-24T13:58:36.849Z,2.20
2018-02-24T14:01:04.608Z,4.03
2018-02-24T14:03:32.163Z,1.60
2018-02-24T14:05:59.755Z,1.57
2018-02-24T14:08:27.302Z,2.80
2018-02-24T14:10:56.017Z,2.30
2018-02-24T14:13:23.564Z,1.20
2018-02-24T14:15:51.338Z,6.13
2018-02-24T14:18:19.189Z,5.33
2018-02-24T14:20:46.746Z,4.10
2018-02-24T14:23:14.573Z,0.90
2018-02-24T14:25:42.225Z,2.80
2018-02-24T14:28:10.535Z,2.37
2018-02-24T14:30:38.146Z,10.63
2018-02-24T14:33:05.904Z,3.30
2018-02-24T14:35:33.852Z,4.93
2018-02-24T14:38:01.525Z,4.87
2018-02-24T14:40:29.153Z,1.47
2018-02-24T14:42:56.722Z,7.10
2018-02-24T14:45:24.344Z,3.00
2018-02-24T14:47:53.000Z,3.53
2018-02-24T14:50:20.540Z,4.77
2018-02-24T14:52:48.095Z,3.07
2018-02-24T14:55:16.456Z,3.97
2018-02-24T14:57:43.996Z,8.23
2018-02-24T15:00:11.580Z,15.23
2018-02-24T15:02:39.161Z,4.20
2018-02-24T15:05:06.777Z,12.53
2018-02-24T15:07:34.332Z,5.87
2018-02-24T15:10:01.909Z,3.37
2018-02-24T15:12:29.445Z,6.17
2018-02-24T15:14:57.426Z,7.60
2018-02-24T15:17:24.961Z,7.03
2018-02-24T15:19:53.279Z,4.13
2018-02-24T15:22:20.864Z,3.60
2018-02-24T15:24:48.614Z,2.77
2018-02-24T15:27:16.607Z,4.53
2018-02-24T15:29:44.177Z,4.60
2018-02-24T15:32:11.754Z,5.90
2018-02-24T15:34:40.098Z,10.17
2018-02-24T15:37:07.652Z,4.13
2018-02-24T15:39:35.761Z,4.87
2018-02-24T15:42:04.177Z,5.80
2018-02-24T15:44:31.837Z,15.60
2018-02-24T15:46:59.417Z,8.70
2018-02-24T15:49:27.026Z,4.67
2018-02-24T15:51:54.785Z,12.60
2018-02-24T15:54:22.233Z,12.47
2018-02-24T15:56:49.839Z,6.80
2018-02-24T15:59:17.394Z,10.07
2018-02-24T16:01:45.284Z,3.17
2018-02-24T16:04:12.865Z,4.03
2018-02-24T16:06:40.387Z,8.43
2018-02-24T16:09:08.000Z,6.47
2018-02-24T16:11:35.536Z,3.27
2018-02-24T16:14:03.126Z,12.47
2018-02-24T16:16:30.656Z,6.00
2018-02-24T16:18:58.221Z,10.60
2018-02-24T16:21:25.920Z,8.40
2018-02-24T16:23:53.466Z,9.53
2018-02-24T16:26:21.841Z,7.83
2018-02-24T16:28:49.388Z,5.40
2018-02-24T16:31:18.089Z,3.97
2018-02-24T16:33:46.402Z,6.20
2018-02-24T16:36:13.964Z,12.03
2018-02-24T16:38:41.542Z,6.20
2018-02-24T16:41:09.087Z,8.70
2018-02-24T16:43:36.699Z,11.83
2018-02-24T16:46:04.249Z,9.40
2018-02-24T16:48:31.845Z,3.57
2018-02-24T16:50:59.397Z,8.50
2018-02-24T16:53:28.026Z,2.63
2018-02-24T16:55:55.580Z,10.43
2018-02-24T16:58:23.142Z,5.10
2018-02-24T17:00:50.713Z,12.93
2018-02-24T17:03:18.257Z,15.10
2018-02-24T17:05:46.141Z,5.70
2018-02-24T17:08:13.690Z,13.80
2018-02-24T17:10:41.623Z,6.07
2018-02-24T17:13:09.233Z,14.43
2018-02-24T17:15:36.787Z,16.07
2018-02-24T17:18:04.379Z,14.33
2018-02-24T17:20:31.939Z,11.40
2018-02-24T17:23:00.594Z,5.40
2018-02-24T17:25:28.134Z,9.70
2018-02-24T17:27:55.669Z,4.60
2018-02-24T17:30:23.236Z,5.30
2018-02-24T17:32:50.766Z,13.97
2018-02-24T17:35:18.346Z,6.10
2018-02-24T17:37:45.897Z,13.30
2018-02-24T17:40:13.482Z,7.27
2018-02-24T17:42:41.016Z,10.03
2018-02-24T17:45:08.913Z,12.43
2018-02-24T17:47:36.463Z,7.70
2018-02-24T17:50:04.014Z,6.93
2018-02-24T17:52:31.594Z,9.80
2018-02-24T17:54:59.158Z,13.83
2018-02-24T17:57:27.026Z,12.63
2018-02-24T17:59:54.782Z,10.90
2018-02-24T18:02:22.341Z,12.93
2018-02-24T18:04:50.074Z,12.37
2018-02-24T18:07:17.627Z,15.80
2018-02-24T18:09:45.217Z,14.30
2018-02-24T18:12:12.820Z,15.90
2018-02-24T18:14:40.412Z,16.93
2018-02-24T18:17:07.960Z,11.30
2018-02-24T18:19:36.302Z,14.83
2018-02-24T18:22:03.824Z,22.23
2018-02-24T18:24:31.733Z,15.30
2018-02-24T18:26:59.301Z,25.27
2018-02-24T18:29:26.848Z,14.80
2018-02-24T18:31:54.431Z,15.13
2018-02-24T18:34:21.968Z,11.00
2018-02-24T18:36:49.557Z,10.37
2018-02-24T18:39:17.236Z,17.03
2018-02-24T18:41:45.205Z,15.63
2018-02-24T18:44:12.726Z,13.20
2018-02-24T18:46:40.271Z,13.70
2018-02-24T18:49:07.846Z,17.23
2018-02-24T18:51:37.186Z,16.57
2018-02-24T18:54:05.359Z,10.37
2018-02-24T18:56:32.936Z,10.33
2018-02-24T18:59:01.034Z,21.20
2018-02-24T19:01:28.595Z,24.47
2018-02-24T19:03:56.135Z,15.50
2018-02-24T19:06:23.728Z,30.43
2018-02-24T19:08:51.290Z,18.33
2018-02-24T19:11:19.648Z,18.97
2018-02-24T19:13:47.224Z,22.27
2018-02-24T19:16:15.252Z,19.80
2018-02-24T19:18:42.799Z,20.93
2018-02-24T19:21:10.353Z,22.87
2018-02-24T19:23:37.934Z,22.23
2018-02-24T19:26:05.489Z,29.13
2018-02-24T19:28:33.122Z,23.07
2018-02-24T19:31:00.664Z,21.93
2018-02-24T19:33:28.487Z,29.67
2018-02-24T19:35:56.097Z,19.50
2018-02-24T19:38:23.654Z,24.50
2018-02-24T19:40:52.058Z,21.07
2018-02-24T19:43:19.607Z,23.43
2018-02-24T19:45:48.181Z,31.07
2018-02-24T19:48:15.745Z,18.90
2018-02-24T19:50:44.410Z,25.30
2018-02-24T19:53:12.840Z,20.40
2018-02-24T19:55:40.466Z,21.40
2018-02-24T19:58:08.112Z,20.37
2018-02-24T20:00:35.663Z,26.03
2018-02-24T20:03:04.472Z,26.40
2018-02-24T20:05:32.069Z,23.17
2018-02-24T20:07:59.617Z,25.50
2018-02-24T20:10:27.216Z,15.03
2018-02-24T20:12:54.762Z,33.27
2018-02-24T20:15:22.601Z,30.67
2018-02-24T20:17:51.134Z,26.80
2018-02-24T20:20:18.686Z,18.60
2018-02-24T20:22:46.430Z,22.93
2018-02-24T20:25:14.002Z,21.77
2018-02-24T20:27:41.849Z,25.43
2018-02-24T20:30:09.418Z,32.90
2018-02-24T20:32:36.981Z,23.00
2018-02-24T20:35:04.565Z,27.50
2018-02-24T20:37:32.908Z,24.70
2018-02-24T20:40:00.490Z,27.37
2018-02-24T20:42:28.118Z,25.07
2018-02-24T20:44:56.016Z,30.63
2018-02-24T20:47:23.709Z,22.20
2018-02-24T20:49:52.061Z,21.57
2018-02-24T20:52:20.214Z,24.17
2018-02-24T20:54:47.780Z,29.47
2018-02-24T20:57:15.336Z,27.67
2018-02-24T20:59:42.997Z,28.37
2018-02-24T21:02:10.583Z,22.50
2018-02-24T21:04:38.176Z,23.00
2018-02-24T21:07:06.505Z,25.80
2018-02-24T21:09:34.052Z,26.17
2018-02-24T21:12:01.689Z,29.57
2018-02-24T21:14:29.236Z,31.20
2018-02-24T21:16:57.577Z,28.57
2018-02-24T21:19:26.071Z,33.93
2018-02-24T21:21:54.056Z,27.37
2018-02-24T21:24:22.884Z,25.73
2018-02-24T21:26:50.682Z,34.30
2018-02-24T21:29:18.319Z,29.00
2018-02-24T21:31:45.878Z,21.87
2018-02-24T21:34:13.757Z,23.43
2018-02-24T21:36:41.707Z,28.57
2018-02-24T21:39:09.262Z,26.00
2018-02-24T21:41:36.906Z,21.37
2018-02-24T21:44:04.464Z,25.07
2018-02-24T21:46:32.052Z,26.47
2018-02-24T21:48:59.606Z,22.03
2018-02-24T21:51:27.190Z,23.23
2018-02-24T21:56:28.858Z,25.40
2018-02-24T21:58:56.411Z,28.10
2018-02-24T22:01:23.962Z,22.73
2018-02-24T22:03:51.631Z,25.07
2018-02-24T22:06:19.213Z,22.43
2018-02-24T22:08:47.181Z,18.10
2018-02-24T22:11:14.726Z,21.70
2018-02-24T22:13:42.330Z,16.03
2018-02-24T22:16:10.686Z,23.53
2018-02-24T22:18:38.238Z,24.90
2018-02-24T22:21:05.858Z,24.70
2018-02-24T22:23:33.421Z,19.07
2018-02-24T22:26:00.997Z,27.60
2018-02-24T22:28:28.577Z,17.70
2018-02-24T22:30:56.174Z,17.13
2018-02-24T22:33:24.558Z,24.43
2018-02-24T22:35:52.119Z,18.67
2018-02-24T22:38:19.862Z,14.93
2018-02-24T22:40:47.403Z,19.10
2018-02-24T22:43:15.757Z,26.43
2018-02-24T22:45:43.325Z,19.93
2018-02-24T22:48:17.149Z,28.70
2018-02-24T22:50:44.743Z,15.80
2018-02-24T22:53:12.309Z,14.93
2018-02-24T22:55:40.018Z,21.47
2018-02-24T22:58:07.588Z,32.17
2018-02-24T23:00:35.177Z,15.23
2018-02-24T23:03:03.465Z,20.90
2018-02-24T23:05:31.049Z,17.83
2018-02-24T23:07:58.583Z,22.90
2018-02-24T23:10:26.158Z,20.40
2018-02-24T23:12:53.697Z,19.63
2018-02-24T23:15:21.619Z,26.60
2018-02-24T23:17:49.185Z,18.43
2018-02-24T23:20:16.878Z,21.53
2018-02-24T23:22:44.440Z,18.73
2018-02-24T23:25:12.742Z,16.53
2018-02-24T23:27:40.577Z,26.50
2018-02-24T23:30:08.946Z,11.77
2018-02-24T23:32:36.504Z,15.70
2018-02-24T23:35:04.855Z,15.27
2018-02-24T23:37:33.008Z,18.67
2018-02-24T23:40:00.584Z,13.57
2018-02-24T23:42:28.125Z,17.83
2018-02-24T23:44:55.853Z,22.33
2018-02-24T23:47:23.502Z,17.90
2018-02-24T23:49:52.141Z,14.97
2018-02-24T23:52:19.693Z,17.97
2018-02-24T23:54:47.225Z,15.10
2018-02-24T23:57:14.805Z,10.00
2018-02-24T23:59:42.358Z,15.83
